Time;durP1;ratioP1;P1;durP2;ratioP2;P2;SDS_P1;SDS_P2;PMS_P1;PMS_P2;Temp;Humidity;BMP_temperature;BMP_pressure;BME280_temperature;BME280_humidity;BME280_pressure;Samples;Min_cycle;Max_cycle;Signal;HPM_P1;HPM_P2
2024/04/12 00:01:46;;;;;;;8.83;3.80;;;9.10;98.00;;;;;;5449739;26;20976;-60
2024/04/12 00:04:15;;;;;;;8.97;4.30;;;9.00;98.00;;;;;;5449339;26;20503;-60
2024/04/12 00:06:44;;;;;;;5.90;3.90;;;9.00;98.00;;;;;;5448716;26;20466;-61
2024/04/12 00:09:17;;;;;;;8.80;4.10;;;8.90;98.00;;;;;;5449167;26;20453;-60
2024/04/12 00:11:46;;;;;;;7.37;3.60;;;8.90;98.00;;;;;;5449588;26;20457;-61
2024/04/12 00:14:14;;;;;;;6.00;3.63;;;8.90;98.00;;;;;;5449080;26;20513;-61
2024/04/12 00:16:52;;;;;;;7.47;3.80;;;8.90;98.00;;;;;;5449668;26;20533;-60
2024/04/12 00:19:18;;;;;;;6.50;4.10;;;8.60;98.00;;;;;;5448102;26;20541;-60
2024/04/12 00:21:51;;;;;;;6.27;3.57;;;8.50;98.00;;;;;;5449694;26;20461;-61
2024/04/12 00:24:18;;;;;;;7.43;3.80;;;8.50;98.00;;;;;;5448991;26;21016;-60
2024/04/12 00:26:48;;;;;;;7.50;4.00;;;8.40;98.00;;;;;;5449344;26;20460;-62
2024/04/12 00:29:25;;;;;;;6.47;3.87;;;8.50;98.00;;;;;;5449081;26;20839;-61
2024/04/12 00:32:03;;;;;;;5.97;3.87;;;8.70;98.00;;;;;;5447455;26;20453;-60
2024/04/12 00:34:37;;;;;;;6.27;4.03;;;8.70;98.00;;;;;;5448724;26;20457;-61
2024/04/12 00:37:09;;;;;;;8.10;4.07;;;8.80;98.00;;;;;;5448717;26;20458;-62
2024/04/12 00:39:38;;;;;;;12.80;4.30;;;8.60;98.00;;;;;;5451603;26;20469;-60
2024/04/12 00:42:08;;;;;;;5.87;3.63;;;8.70;98.00;;;;;;5452122;26;20555;-60
2024/04/12 00:44:38;;;;;;;6.37;3.83;;;8.70;98.00;;;;;;5452276;26;20461;-63
2024/04/12 00:47:15;;;;;;;5.97;3.73;;;8.60;98.00;;;;;;5452852;26;20485;-62
2024/04/12 00:49:49;;;;;;;7.40;3.60;;;8.70;98.00;;;;;;5452553;26;20792;-61
2024/04/12 00:52:22;;;;;;;6.07;3.57;;;8.80;98.00;;;;;;5451963;26;20477;-61
2024/04/12 00:54:55;;;;;;;6.57;3.90;;;8.70;98.00;;;;;;5452209;26;20457;-60
2024/04/12 00:57:26;;;;;;;10.43;4.13;;;8.70;98.00;;;;;;5452095;26;20473;-61
2024/04/12 00:59:52;;;;;;;8.30;3.90;;;8.40;98.00;;;;;;5452165;26;20783;-61
2024/04/12 01:02:26;;;;;;;5.30;3.80;;;8.40;98.00;;;;;;5452208;26;20459;-61
2024/04/12 01:04:53;;;;;;;6.20;4.20;;;8.30;98.00;;;;;;5452144;26;20622;-60
2024/04/12 01:07:23;;;;;;;7.27;3.70;;;8.10;98.00;;;;;;5452102;26;20561;-60
2024/04/12 01:09:49;;;;;;;6.90;4.10;;;7.90;98.00;;;;;;5451561;26;20501;-62
2024/04/12 01:12:23;;;;;;;5.27;3.60;;;7.70;98.00;;;;;;5452229;26;20845;-63
2024/04/12 01:14:50;;;;;;;8.10;4.10;;;7.70;98.00;;;;;;5451635;26;20468;-61
2024/04/12 01:17:19;;;;;;;7.67;4.20;;;7.70;98.00;;;;;;5452207;26;20461;-61
2024/04/12 01:19:47;;;;;;;6.37;3.83;;;7.70;98.00;;;;;;5451338;26;20497;-60
2024/04/12 01:22:18;;;;;;;9.37;3.90;;;7.70;98.00;;;;;;5451921;26;20463;-61
2024/04/12 01:24:47;;;;;;;7.20;3.70;;;7.80;98.00;;;;;;5451847;26;21175;-61
2024/04/12 01:27:15;;;;;;;5.93;4.00;;;7.60;98.00;;;;;;5451765;26;20607;-60
2024/04/12 01:29:42;;;;;;;9.33;4.50;;;7.80;98.00;;;;;;5451736;26;20462;-61
2024/04/12 01:32:12;;;;;;;7.70;4.00;;;7.90;98.00;;;;;;5451671;26;20499;-61
2024/04/12 01:34:39;;;;;;;6.53;3.90;;;7.70;98.00;;;;;;5451506;26;20460;-62
2024/04/12 01:37:09;;;;;;;8.13;4.10;;;7.60;98.00;;;;;;5451639;26;20532;-60
2024/04/12 01:39:35;;;;;;;7.77;3.97;;;7.60;98.00;;;;;;5450529;26;20464;-61
2024/04/12 01:42:07;;;;;;;6.07;3.60;;;7.60;98.00;;;;;;5451885;26;20519;-60
2024/04/12 01:44:33;;;;;;;8.90;3.50;;;7.70;98.00;;;;;;5451612;26;20639;-61
2024/04/12 01:47:03;;;;;;;7.43;4.00;;;7.50;98.00;;;;;;5451582;26;20464;-61
2024/04/12 01:49:34;;;;;;;7.60;4.70;;;7.50;98.00;;;;;;5451027;26;20506;-60
2024/04/12 01:52:12;;;;;;;12.10;4.10;;;7.40;98.00;;;;;;5450092;26;20468;-62
2024/04/12 01:55:04;;;;;;;7.10;3.80;;;7.50;98.00;;;;;;5452060;26;20464;-61
2024/04/12 01:57:32;;;;;;;9.50;4.20;;;7.40;98.00;;;;;;5450842;26;20495;-60
2024/04/12 01:59:58;;;;;;;7.67;3.67;;;7.30;98.00;;;;;;5451278;26;21029;-60
2024/04/12 02:02:28;;;;;;;8.73;4.40;;;7.30;98.00;;;;;;5450531;26;20986;-62
2024/04/12 02:04:56;;;;;;;12.00;4.10;;;7.70;98.00;;;;;;5451560;26;20451;-61
2024/04/12 02:07:27;;;;;;;7.40;3.80;;;7.80;98.00;;;;;;5451200;26;20925;-63
2024/04/12 02:09:58;;;;;;;7.97;3.87;;;7.80;98.00;;;;;;5451281;26;20461;-61
2024/04/12 02:12:27;;;;;;;8.10;4.50;;;7.80;98.00;;;;;;5450557;26;20507;-60
2024/04/12 02:14:59;;;;;;;12.70;3.90;;;7.70;98.00;;;;;;5451109;26;20511;-61
2024/04/12 02:17:30;;;;;;;11.40;4.50;;;7.60;98.00;;;;;;5451036;26;20546;-61
2024/04/12 02:19:57;;;;;;;6.90;3.63;;;7.40;98.00;;;;;;5450351;26;20465;-62
2024/04/12 02:22:28;;;;;;;8.47;3.80;;;7.40;98.00;;;;;;5450968;26;20461;-61
2024/04/12 02:24:54;;;;;;;6.67;3.90;;;7.20;98.00;;;;;;5450996;26;20570;-61
2024/04/12 02:27:29;;;;;;;6.27;4.07;;;7.20;98.00;;;;;;5450617;26;20498;-61
2024/04/12 02:29:58;;;;;;;6.90;3.90;;;7.20;98.00;;;;;;5451281;26;20595;-60
2024/04/12 02:32:27;;;;;;;6.87;4.00;;;7.10;98.00;;;;;;5450398;26;20497;-61
2024/04/12 02:34:54;;;;;;;10.33;3.70;;;7.10;98.00;;;;;;5450064;26;20514;-61
2024/04/12 02:37:23;;;;;;;7.23;3.87;;;7.10;98.00;;;;;;5450543;26;20457;-60
2024/04/12 02:39:53;;;;;;;8.43;3.80;;;7.00;98.00;;;;;;5449698;26;20587;-62
2024/04/12 02:42:28;;;;;;;9.17;4.27;;;7.00;98.00;;;;;;5449509;26;20461;-60
2024/04/12 02:44:57;;;;;;;5.10;3.50;;;6.90;98.00;;;;;;5450365;26;20448;-60
2024/04/12 02:47:29;;;;;;;8.63;4.10;;;7.00;98.00;;;;;;5450481;26;20461;-61
2024/04/12 02:49:55;;;;;;;5.80;3.80;;;7.10;98.00;;;;;;5449923;26;20504;-61
2024/04/12 02:52:24;;;;;;;7.30;4.20;;;7.30;98.00;;;;;;5449500;26;20473;-63
2024/04/12 02:54:52;;;;;;;6.80;4.00;;;7.60;98.00;;;;;;5450077;26;20461;-61
2024/04/12 02:57:22;;;;;;;6.67;3.77;;;7.60;98.00;;;;;;5450109;26;20837;-60
2024/04/12 02:59:52;;;;;;;8.00;3.90;;;7.60;98.00;;;;;;5450650;26;20579;-60
2024/04/12 03:02:24;;;;;;;8.20;4.07;;;7.40;98.00;;;;;;5450504;26;20517;-60
2024/04/12 03:04:51;;;;;;;9.97;4.23;;;7.30;98.00;;;;;;5450367;26;20554;-60
2024/04/12 03:07:20;;;;;;;6.67;3.80;;;7.20;98.00;;;;;;5450152;26;20464;-61
2024/04/12 03:09:46;;;;;;;7.60;4.07;;;7.30;98.00;;;;;;5449670;26;20589;-60
2024/04/12 03:12:14;;;;;;;7.03;3.70;;;7.30;98.00;;;;;;5449753;26;20916;-60
2024/04/12 03:14:41;;;;;;;5.73;3.53;;;7.30;98.00;;;;;;5449442;26;20459;-60
2024/04/12 03:17:11;;;;;;;5.47;3.70;;;7.40;98.00;;;;;;5449500;26;21020;-63
2024/04/12 03:19:41;;;;;;;8.50;4.10;;;7.40;98.00;;;;;;5450072;26;21088;-61
2024/04/12 03:22:10;;;;;;;12.53;4.23;;;7.20;98.00;;;;;;5450073;26;20465;-60
2024/04/12 03:24:37;;;;;;;9.17;4.00;;;7.20;98.00;;;;;;5448622;26;20473;-59
2024/04/12 03:27:06;;;;;;;9.90;4.50;;;7.20;98.00;;;;;;5450127;26;20831;-61
2024/04/12 03:29:32;;;;;;;7.57;4.10;;;7.20;98.00;;;;;;5449674;26;20465;-61
2024/04/12 03:32:04;;;;;;;9.13;4.20;;;7.30;98.00;;;;;;5449889;26;20469;-61
2024/04/12 03:34:35;;;;;;;8.17;3.97;;;7.30;98.00;;;;;;5449959;26;20504;-60
2024/04/12 03:37:23;;;;;;;5.70;3.73;;;7.20;98.00;;;;;;5449965;26;20465;-60
2024/04/12 03:40:00;;;;;;;8.73;3.90;;;7.00;98.00;;;;;;5450115;26;20917;-60
2024/04/12 03:42:28;;;;;;;5.40;3.60;;;6.80;98.00;;;;;;5448582;26;20465;-60
2024/04/12 03:44:57;;;;;;;7.60;3.97;;;6.70;98.00;;;;;;5449494;26;20464;-61
2024/04/12 03:47:27;;;;;;;6.57;3.83;;;6.80;98.00;;;;;;5448096;26;20465;-60
2024/04/12 03:49:55;;;;;;;11.70;4.60;;;6.80;98.00;;;;;;5450013;26;20461;-60
2024/04/12 03:52:29;;;;;;;9.27;4.40;;;6.70;98.00;;;;;;5449484;26;20504;-61
2024/04/12 03:55:08;;;;;;;7.87;3.87;;;6.60;98.00;;;;;;5449877;26;20477;-61
2024/04/12 03:57:38;;;;;;;6.13;3.73;;;6.60;98.00;;;;;;5449797;26;20471;-61
2024/04/12 04:00:13;;;;;;;5.80;3.37;;;6.50;98.00;;;;;;5448273;26;20468;-60
2024/04/12 04:02:48;;;;;;;6.57;3.90;;;6.70;98.00;;;;;;5449585;26;20516;-59
2024/04/12 04:05:14;;;;;;;6.50;3.77;;;6.70;98.00;;;;;;5449449;26;21029;-60
2024/04/12 04:07:47;;;;;;;6.50;4.03;;;6.80;98.00;;;;;;5449420;26;21082;-61
2024/04/12 04:10:15;;;;;;;8.93;4.10;;;6.80;98.00;;;;;;5448351;26;20509;-60
2024/04/12 04:12:49;;;;;;;7.83;4.37;;;6.60;98.00;;;;;;5449583;26;20944;-61
2024/04/12 04:15:16;;;;;;;7.87;4.13;;;6.40;98.00;;;;;;5451433;26;20954;-60
2024/04/12 04:17:49;;;;;;;6.37;3.80;;;6.30;98.00;;;;;;5452077;26;20476;-61
2024/04/12 04:20:17;;;;;;;8.37;4.20;;;6.30;98.00;;;;;;5451675;26;20508;-60
2024/04/12 04:22:49;;;;;;;8.87;4.70;;;6.30;98.00;;;;;;5452758;26;20461;-62
2024/04/12 04:25:19;;;;;;;6.57;3.83;;;6.20;98.00;;;;;;5451787;26;20572;-59
2024/04/12 04:27:48;;;;;;;7.50;4.13;;;6.20;98.00;;;;;;5452905;26;20460;-62
2024/04/12 04:30:18;;;;;;;7.83;4.00;;;6.30;98.00;;;;;;5453176;26;20962;-60
2024/04/12 04:32:48;;;;;;;7.80;4.43;;;6.30;98.00;;;;;;5453021;26;20505;-60
2024/04/12 04:35:15;;;;;;;7.30;4.03;;;6.30;98.00;;;;;;5452566;26;20461;-60
2024/04/12 04:37:44;;;;;;;12.27;4.20;;;6.30;98.00;;;;;;5452702;26;20495;-61
2024/04/12 04:40:16;;;;;;;7.27;4.30;;;6.30;98.00;;;;;;5452789;26;20934;-61
2024/04/12 04:42:45;;;;;;;6.37;3.97;;;6.40;98.00;;;;;;5453012;26;20516;-60
2024/04/12 04:45:17;;;;;;;7.27;4.10;;;6.40;98.00;;;;;;5451712;26;20468;-61
2024/04/12 04:47:46;;;;;;;6.87;4.03;;;6.40;98.00;;;;;;5452135;26;20463;-60
2024/04/12 04:50:13;;;;;;;6.30;3.80;;;6.20;98.00;;;;;;5451790;26;20510;-61
2024/04/12 04:52:44;;;;;;;8.83;4.30;;;6.30;98.00;;;;;;5451857;26;20514;-60
2024/04/12 04:55:13;;;;;;;9.60;4.30;;;6.40;98.00;;;;;;5451301;26;20465;-61
2024/04/12 04:57:43;;;;;;;6.60;4.10;;;6.50;98.00;;;;;;5451975;26;20463;-61
2024/04/12 05:00:18;;;;;;;6.93;3.90;;;6.60;98.00;;;;;;5451928;26;20452;-60
2024/04/12 05:02:49;;;;;;;8.17;3.93;;;6.60;98.00;;;;;;5451631;26;20467;-61
2024/04/12 05:05:22;;;;;;;8.00;3.97;;;6.80;98.00;;;;;;5451809;26;20532;-60
2024/04/12 05:07:52;;;;;;;7.60;4.07;;;6.80;98.00;;;;;;5453232;26;20463;-60
2024/04/12 05:10:21;;;;;;;6.90;4.20;;;6.90;98.00;;;;;;5452890;26;20824;-61
2024/04/12 05:12:50;;;;;;;7.57;3.97;;;6.90;98.00;;;;;;5452517;26;20518;-60
2024/04/12 05:18:16;;;;;;;11.83;4.03;;;6.90;98.00;;;;;;5452733;26;20974;-60
2024/04/12 05:20:42;;;;;;;6.80;3.77;;;7.00;98.00;;;;;;5452549;26;20961;-61
2024/04/12 05:23:12;;;;;;;8.20;4.03;;;7.10;98.00;;;;;;5452989;26;20973;-60
2024/04/12 05:25:43;;;;;;;8.30;4.50;;;7.00;98.00;;;;;;5450244;26;20460;-61
2024/04/12 05:28:12;;;;;;;10.00;4.33;;;7.10;98.00;;;;;;5452907;26;20472;-60
2024/04/12 05:30:42;;;;;;;9.73;4.70;;;7.00;98.00;;;;;;5452652;26;20460;-60
2024/04/12 05:33:12;;;;;;;7.70;4.30;;;6.90;98.00;;;;;;5452757;26;20449;-61
2024/04/12 05:35:40;;;;;;;8.10;4.10;;;6.80;98.00;;;;;;5381459;26;20512;-60
2024/04/12 05:38:09;;;;;;;8.73;4.10;;;6.70;98.00;;;;;;5381391;26;20455;-62
2024/04/12 05:40:40;;;;;;;9.60;4.33;;;6.70;98.00;;;;;;5381442;26;20514;-59
2024/04/12 05:43:13;;;;;;;8.60;4.53;;;6.70;98.00;;;;;;5408518;26;20448;-59
2024/04/12 05:45:40;;;;;;;7.43;4.33;;;6.90;98.00;;;;;;5381664;26;20527;-60
2024/04/12 05:48:13;;;;;;;8.63;4.53;;;7.10;98.00;;;;;;5381740;26;20468;-62
2024/04/12 05:50:39;;;;;;;8.20;4.60;;;7.10;98.00;;;;;;5381503;26;20460;-60
2024/04/12 05:53:10;;;;;;;10.63;4.57;;;7.10;98.00;;;;;;5380866;26;20476;-60
2024/04/12 05:55:44;;;;;;;8.43;4.60;;;7.20;98.00;;;;;;5380998;26;20467;-62
2024/04/12 05:58:17;;;;;;;8.30;4.37;;;7.20;98.00;;;;;;5381231;26;20969;-59
2024/04/12 06:00:47;;;;;;;9.03;4.53;;;7.30;98.00;;;;;;5380752;26;20473;-59
2024/04/12 06:03:17;;;;;;;8.60;4.80;;;7.50;98.00;;;;;;5381397;26;20468;-59
2024/04/12 06:05:45;;;;;;;6.50;4.33;;;7.80;98.00;;;;;;5380918;26;20457;-59
2024/04/12 06:08:14;;;;;;;9.33;5.03;;;7.90;98.00;;;;;;5380953;26;20578;-59
2024/04/12 06:10:44;;;;;;;8.00;4.80;;;7.80;98.00;;;;;;5380931;26;20460;-59
2024/04/12 06:13:16;;;;;;;8.50;4.70;;;7.70;98.00;;;;;;5380729;26;20459;-58
2024/04/12 06:15:43;;;;;;;11.17;4.97;;;7.60;98.00;;;;;;5380821;26;20820;-60
2024/04/12 06:18:13;;;;;;;10.60;5.00;;;7.50;98.00;;;;;;5408369;26;20514;-59
2024/04/12 06:20:43;;;;;;;10.20;5.10;;;7.60;98.00;;;;;;5380628;26;20466;-59
2024/04/12 06:23:11;;;;;;;9.60;5.03;;;7.60;98.00;;;;;;5380745;26;20506;-60
2024/04/12 06:25:43;;;;;;;10.10;4.87;;;7.70;98.00;;;;;;5380216;26;20508;-58
2024/04/12 06:28:13;;;;;;;10.13;5.20;;;7.90;98.00;;;;;;5380650;26;20456;-59
2024/04/12 06:30:43;;;;;;;8.50;4.70;;;8.00;98.00;;;;;;5380799;26;21072;-59
2024/04/12 06:33:12;;;;;;;11.27;5.00;;;8.20;98.00;;;;;;5380486;26;20568;-59
2024/04/12 06:35:44;;;;;;;11.67;5.60;;;8.40;98.00;;;;;;5407665;26;20565;-59
2024/04/12 06:38:10;;;;;;;13.40;5.53;;;8.50;98.00;;;;;;5380290;26;20527;-59
2024/04/12 06:40:44;;;;;;;13.60;5.67;;;8.60;98.00;;;;;;5380678;26;20456;-59
2024/04/12 06:43:13;;;;;;;13.10;5.40;;;8.80;98.00;;;;;;5380512;26;20460;-59
2024/04/12 06:45:44;;;;;;;12.97;5.90;;;8.90;98.00;;;;;;5380440;26;20503;-58
2024/04/12 06:48:16;;;;;;;14.90;6.07;;;8.80;98.00;;;;;;5380281;26;20586;-59
2024/04/12 06:50:55;;;;;;;17.43;5.77;;;8.80;98.00;;;;;;5380359;26;20581;-59
2024/04/12 06:53:22;;;;;;;11.10;5.40;;;8.90;98.00;;;;;;5379965;26;20896;-59
2024/04/12 06:55:54;;;;;;;11.03;5.27;;;8.80;98.00;;;;;;5379322;26;20460;-59
2024/04/12 06:58:25;;;;;;;11.53;5.50;;;8.90;98.00;;;;;;5380284;26;20473;-59
2024/04/12 07:00:56;;;;;;;11.60;6.10;;;9.00;98.00;;;;;;5407716;26;20805;-59
2024/04/12 07:03:23;;;;;;;8.83;4.97;;;9.10;98.00;;;;;;5380382;26;20566;-59
2024/04/12 07:05:53;;;;;;;9.53;4.90;;;9.20;98.00;;;;;;5380254;26;20465;-59
2024/04/12 07:08:21;;;;;;;10.00;5.57;;;9.40;98.00;;;;;;5380098;26;20464;-58
2024/04/12 07:10:51;;;;;;;8.90;4.97;;;9.60;98.00;;;;;;5380258;26;20464;-59
2024/04/12 07:13:21;;;;;;;12.80;5.60;;;9.80;98.00;;;;;;5379742;26;20581;-59
2024/04/12 07:15:55;;;;;;;13.63;5.37;;;10.00;98.00;;;;;;5380061;26;20464;-60
2024/04/12 07:18:22;;;;;;;9.40;5.10;;;10.00;98.00;;;;;;5380111;26;20464;-58
2024/04/12 07:20:57;;;;;;;10.03;5.20;;;10.20;98.00;;;;;;5380114;26;20467;-60
2024/04/12 07:23:23;;;;;;;8.60;4.97;;;10.30;98.00;;;;;;5379929;26;21010;-59
2024/04/12 07:25:52;;;;;;;10.07;5.57;;;10.60;98.00;;;;;;5380256;26;20460;-59
2024/04/12 07:28:19;;;;;;;11.03;5.60;;;10.80;98.00;;;;;;5379879;26;20459;-59
2024/04/12 07:30:48;;;;;;;9.20;5.53;;;11.00;98.00;;;;;;5379982;26;20470;-59
2024/04/12 07:33:17;;;;;;;13.47;5.77;;;11.30;98.00;;;;;;5380116;26;20837;-59
2024/04/12 07:35:48;;;;;;;10.43;5.20;;;11.60;98.00;;;;;;5379429;26;20524;-59
2024/04/12 07:38:15;;;;;;;10.60;5.50;;;11.70;98.00;;;;;;5380123;26;21268;-59
2024/04/12 07:40:49;;;;;;;11.73;6.30;;;11.90;98.00;;;;;;5382945;26;20519;-59
2024/04/12 07:43:16;;;;;;;16.47;6.27;;;12.00;98.00;;;;;;5415107;26;20516;-59
2024/04/12 07:45:45;;;;;;;14.10;6.30;;;12.00;98.00;;;;;;5436826;26;21143;-59
2024/04/12 07:48:23;;;;;;;12.80;6.87;;;12.00;98.00;;;;;;5440963;26;20466;-60
2024/04/12 07:50:59;;;;;;;15.17;6.73;;;12.20;98.00;;;;;;5426536;26;20930;-60
2024/04/12 07:53:30;;;;;;;10.43;6.10;;;12.30;98.00;;;;;;5430730;26;20495;-60
2024/04/12 07:56:07;;;;;;;12.23;5.77;;;12.50;98.00;;;;;;5419263;26;21120;-64
2024/04/12 07:58:34;;;;;;;10.77;5.90;;;12.70;98.00;;;;;;5383060;26;20623;-59
2024/04/12 08:01:15;;;;;;;12.17;5.80;;;12.80;98.00;;;;;;5419012;26;20528;-59
2024/04/12 08:03:42;;;;;;;11.87;6.70;;;12.90;98.00;;;;;;5447980;26;20452;-61
2024/04/12 08:06:36;;;;;;;10.00;5.37;;;12.90;98.00;;;;;;5446404;26;20512;-59
2024/04/12 08:09:03;;;;;;;10.23;5.90;;;13.00;98.00;;;;;;5380330;26;20474;-58
2024/04/12 08:11:41;;;;;;;13.50;6.00;;;13.20;98.00;;;;;;5433438;26;20576;-60
2024/04/12 08:17:39;;;;;;;12.27;6.07;;;13.70;98.00;;;;;;5395567;25;20682;-60
2024/04/12 08:20:13;;;;;;;12.30;5.90;;;14.00;98.00;;;;;;5396407;26;20481;-58
2024/04/12 08:22:43;;;;;;;10.20;5.50;;;14.30;98.00;;;;;;5443934;26;20464;-59
2024/04/12 08:25:09;;;;;;;10.40;4.93;;;14.40;98.00;;;;;;5401418;26;20476;-58
2024/04/12 08:27:41;;;;;;;12.93;6.00;;;14.60;98.00;;;;;;5395365;26;20475;-59
2024/04/12 08:30:13;;;;;;;10.30;5.80;;;14.70;98.00;;;;;;5420295;26;20566;-59
2024/04/12 08:32:48;;;;;;;6.10;3.97;;;14.80;98.00;;;;;;5431440;26;20469;-58
2024/04/12 08:35:19;;;;;;;11.20;4.13;;;15.00;98.00;;;;;;5427147;26;20596;-58
2024/04/12 08:37:48;;;;;;;9.33;5.40;;;15.50;98.00;;;;;;5409262;26;20499;-58
2024/04/12 08:40:19;;;;;;;8.57;5.40;;;15.80;98.00;;;;;;5396982;26;20463;-59
2024/04/12 08:42:49;;;;;;;11.43;5.60;;;16.10;98.00;;;;;;5395404;26;20512;-59
2024/04/12 08:45:18;;;;;;;8.30;5.40;;;16.30;98.00;;;;;;5394772;26;20497;-59
2024/04/12 08:48:02;;;;;;;12.93;5.90;;;16.40;98.00;;;;;;5393033;26;20526;-60
2024/04/12 08:50:31;;;;;;;10.13;5.57;;;16.50;98.00;;;;;;5395074;26;20460;-59
2024/04/12 08:53:04;;;;;;;9.53;5.50;;;16.60;98.00;;;;;;5393844;26;20803;-58
2024/04/12 08:55:32;;;;;;;11.33;6.13;;;16.70;98.00;;;;;;5395499;26;20452;-59
2024/04/12 08:58:06;;;;;;;10.63;5.47;;;16.80;98.00;;;;;;5395253;26;20471;-58
2024/04/12 09:00:33;;;;;;;11.03;6.27;;;16.80;98.00;;;;;;5432769;26;21241;-59
2024/04/12 09:03:10;;;;;;;13.50;6.30;;;17.00;98.00;;;;;;5432613;26;20461;-60
2024/04/12 09:05:40;;;;;;;16.13;5.87;;;17.00;98.00;;;;;;5432374;26;20963;-58
2024/04/12 09:08:09;;;;;;;10.60;6.13;;;17.20;98.00;;;;;;5432639;26;21016;-58
2024/04/12 09:10:36;;;;;;;13.17;6.50;;;17.30;98.00;;;;;;5432554;26;20562;-58
2024/04/12 09:13:08;;;;;;;12.00;6.30;;;17.40;98.00;;;;;;5424047;26;20477;-59
2024/04/12 09:15:34;;;;;;;12.70;6.57;;;17.60;98.00;;;;;;5432025;26;20800;-60
2024/04/12 09:18:13;;;;;;;15.57;6.10;;;17.80;98.00;;;;;;5432475;26;20458;-59
2024/04/12 09:20:40;;;;;;;15.17;6.57;;;17.90;98.00;;;;;;5432660;26;20458;-59
2024/04/12 09:23:19;;;;;;;12.37;6.50;;;18.10;98.00;;;;;;5422776;26;20471;-60
2024/04/12 09:25:54;;;;;;;11.20;6.00;;;18.20;98.00;;;;;;5396857;26;20463;-59
2024/04/12 09:28:26;;;;;;;10.30;5.70;;;18.30;98.00;;;;;;5384046;26;20549;-62
2024/04/12 09:33:50;;;;;;;10.90;6.40;;;18.60;98.00;;;;;;5384160;26;20838;-59
2024/04/12 09:36:38;;;;;;;13.37;6.70;;;18.70;98.00;;;;;;5381414;26;20560;-58
2024/04/12 09:39:14;;;;;;;11.70;6.30;;;18.80;98.00;;;;;;5380997;26;20452;-60
2024/04/12 09:41:53;;;;;;;14.63;7.17;;;19.00;98.00;;;;;;5380636;26;20456;-59
2024/04/12 09:44:26;;;;;;;14.20;6.90;;;19.00;98.00;;;;;;5381166;26;20516;-60
2024/04/12 10:39:49;;;;;;;8.00;5.20;;;21.60;91.20;;;;;;5381892;26;20482;-59
2024/04/12 10:42:25;;;;;;;10.40;4.93;;;21.70;89.80;;;;;;5378632;26;20841;-59
2024/04/12 10:44:56;;;;;;;11.53;5.20;;;22.00;93.90;;;;;;5379745;26;20527;-60
2024/04/12 10:47:22;;;;;;;11.13;5.60;;;22.30;90.40;;;;;;5380445;26;20965;-59
2024/04/12 10:49:51;;;;;;;11.27;5.00;;;22.50;88.70;;;;;;5380491;26;20516;-60
2024/04/12 10:52:28;;;;;;;9.70;5.03;;;22.60;88.50;;;;;;5380366;26;20516;-59
2024/04/12 10:55:00;;;;;;;9.83;4.90;;;22.70;87.80;;;;;;5379962;26;20538;-59
2024/04/12 10:57:29;;;;;;;9.30;5.43;;;22.80;89.80;;;;;;5380168;26;20574;-60
2024/04/12 11:00:00;;;;;;;11.03;5.40;;;23.00;90.30;;;;;;5380057;26;20513;-59
2024/04/12 11:02:27;;;;;;;9.60;5.00;;;23.10;91.70;;;;;;5380403;26;20606;-60
2024/04/12 11:05:24;;;;;;;8.53;5.20;;;23.10;88.90;;;;;;5380460;26;20456;-58
2024/04/12 11:07:52;;;;;;;9.60;4.80;;;23.10;88.80;;;;;;5380538;26;20510;-60
2024/04/12 11:10:38;;;;;;;6.80;4.23;;;23.10;86.20;;;;;;5380325;26;20464;-58
2024/04/12 11:13:16;;;;;;;9.53;4.83;;;23.30;88.70;;;;;;5380276;26;20456;-59
2024/04/12 11:32:25;;;;;;;7.50;4.80;;;23.10;85.40;;;;;;5381988;26;20846;-60
2024/04/12 11:34:56;;;;;;;9.93;4.87;;;22.90;83.60;;;;;;5379154;26;20460;-60
2024/04/12 11:37:25;;;;;;;6.53;4.37;;;22.90;85.70;;;;;;5379242;26;20464;-59
2024/04/12 11:39:56;;;;;;;7.00;4.60;;;22.90;86.30;;;;;;5379570;26;20800;-59
2024/04/12 11:42:26;;;;;;;8.83;4.20;;;23.10;85.70;;;;;;5379851;26;20452;-59
2024/04/12 11:44:55;;;;;;;9.03;5.13;;;23.20;85.30;;;;;;5379119;26;20551;-59
2024/04/12 11:47:23;;;;;;;7.67;4.50;;;23.50;86.00;;;;;;5379102;26;20464;-59
2024/04/12 11:49:57;;;;;;;7.63;4.43;;;23.90;87.00;;;;;;5379032;26;21049;-59
2024/04/12 11:52:25;;;;;;;6.13;4.30;;;24.10;83.50;;;;;;5379122;26;20795;-59
2024/04/12 11:54:55;;;;;;;6.40;4.20;;;24.30;83.90;;;;;;5377783;26;20512;-59
2024/04/12 11:57:27;;;;;;;8.60;4.77;;;24.40;82.60;;;;;;5379434;26;20538;-59
2024/04/12 11:59:58;;;;;;;10.03;4.97;;;24.50;81.50;;;;;;5379519;26;20580;-60
2024/04/12 12:02:27;;;;;;;7.90;4.53;;;24.80;82.80;;;;;;5379271;26;20838;-58
2024/04/12 12:04:56;;;;;;;8.53;4.37;;;25.20;83.60;;;;;;5379371;26;20506;-60
2024/04/12 12:07:23;;;;;;;14.23;4.10;;;25.50;83.00;;;;;;5379448;26;20557;-59
2024/04/12 12:09:52;;;;;;;10.13;4.27;;;25.70;80.40;;;;;;5378968;26;20509;-59
2024/04/12 12:12:22;;;;;;;7.70;4.90;;;25.80;82.30;;;;;;5379378;26;20598;-59
2024/04/12 12:14:54;;;;;;;6.60;3.70;;;25.70;82.00;;;;;;5376655;26;20472;-59
2024/04/12 12:17:21;;;;;;;8.10;4.03;;;26.00;81.30;;;;;;5378265;26;20472;-60
2024/04/12 12:19:52;;;;;;;7.33;4.07;;;26.30;79.20;;;;;;5377115;26;21092;-59
2024/04/12 12:22:19;;;;;;;7.50;4.30;;;26.30;79.60;;;;;;5379151;26;21041;-59
2024/04/12 12:24:48;;;;;;;5.37;4.00;;;26.00;76.50;;;;;;5379269;26;20460;-61
2024/04/12 12:27:15;;;;;;;8.17;3.77;;;26.10;77.60;;;;;;5376915;26;20452;-58
2024/04/12 12:29:48;;;;;;;11.73;4.23;;;26.10;75.90;;;;;;5378847;26;20594;-59
2024/04/12 12:32:19;;;;;;;5.83;3.97;;;26.30;76.20;;;;;;5379081;26;20586;-60
2024/04/12 12:34:49;;;;;;;6.77;3.80;;;26.40;77.20;;;;;;5378619;26;20575;-59
2024/04/12 12:37:15;;;;;;;5.47;3.67;;;26.60;76.60;;;;;;5377261;26;20512;-59
2024/04/12 12:39:44;;;;;;;6.60;3.63;;;26.60;75.60;;;;;;5377180;26;20539;-59
2024/04/12 12:42:12;;;;;;;5.00;3.60;;;26.90;76.40;;;;;;5378802;26;20452;-59
2024/04/12 12:44:41;;;;;;;4.80;3.57;;;27.10;74.70;;;;;;5377061;26;20988;-59
2024/04/12 12:47:08;;;;;;;5.33;3.50;;;27.30;73.40;;;;;;5378816;26;20966;-59
2024/04/12 12:49:46;;;;;;;5.90;3.60;;;27.10;73.00;;;;;;5378730;26;20463;-60
2024/04/12 12:52:13;;;;;;;6.63;3.70;;;26.90;73.90;;;;;;5378720;26;20475;-60
2024/04/12 12:54:43;;;;;;;8.37;4.07;;;26.90;74.60;;;;;;5378864;26;20463;-58
2024/04/12 12:57:14;;;;;;;5.43;3.47;;;27.00;74.50;;;;;;5378869;26;20467;-58
2024/04/12 12:59:44;;;;;;;4.93;3.33;;;26.90;74.70;;;;;;5378861;26;20467;-59
2024/04/12 13:02:14;;;;;;;4.67;3.03;;;27.10;73.50;;;;;;5378840;26;20468;-58
2024/04/12 13:04:46;;;;;;;7.80;3.83;;;27.30;72.80;;;;;;5382181;26;20471;-58
2024/04/12 13:07:16;;;;;;;6.80;3.77;;;27.50;75.30;;;;;;5380370;26;20504;-60
2024/04/12 13:09:53;;;;;;;6.03;3.50;;;27.70;74.80;;;;;;5382660;26;20878;-58
2024/04/12 13:12:19;;;;;;;7.60;3.73;;;27.90;74.70;;;;;;5382038;26;20463;-59
2024/04/12 13:14:50;;;;;;;5.23;3.80;;;28.00;72.50;;;;;;5381785;26;20799;-58
2024/04/12 13:17:23;;;;;;;4.50;3.53;;;28.00;73.70;;;;;;5381652;26;20468;-58
2024/04/12 13:19:56;;;;;;;4.70;3.50;;;28.30;72.50;;;;;;5381913;26;20508;-59
2024/04/12 13:22:22;;;;;;;4.97;3.70;;;28.40;71.90;;;;;;5380281;26;20460;-59
2024/04/12 13:24:51;;;;;;;8.30;4.00;;;28.40;74.00;;;;;;5381886;26;20508;-59
2024/04/12 13:27:18;;;;;;;6.80;3.93;;;28.30;71.00;;;;;;5381732;26;20471;-59
2024/04/12 13:29:48;;;;;;;8.70;4.03;;;28.00;72.00;;;;;;5381427;26;20472;-58
2024/04/12 13:32:14;;;;;;;6.27;3.90;;;28.10;73.80;;;;;;5381354;26;20464;-58
2024/04/12 13:34:43;;;;;;;6.60;4.53;;;28.40;70.90;;;;;;5381003;26;20459;-58
2024/04/12 13:37:14;;;;;;;6.60;4.20;;;28.40;72.80;;;;;;5381061;26;20456;-59
2024/04/12 13:39:48;;;;;;;9.90;4.63;;;28.60;74.40;;;;;;5381038;26;20463;-59
2024/04/12 13:42:14;;;;;;;12.17;4.50;;;28.70;71.80;;;;;;5381224;26;20516;-57
2024/04/12 13:52:59;;;;;;;14.77;5.73;;;29.10;70.70;;;;;;5348779;26;20835;-59
2024/04/12 13:55:28;;;;;;;12.87;5.50;;;28.90;69.10;;;;;;5346342;26;20512;-59
2024/04/12 13:57:56;;;;;;;9.67;5.40;;;28.70;70.50;;;;;;5346064;26;20523;-59
2024/04/12 14:00:30;;;;;;;8.37;4.77;;;28.40;69.10;;;;;;5344499;26;20858;-58
2024/04/12 14:03:05;;;;;;;16.30;7.43;;;28.60;73.10;;;;;;5344682;26;20457;-59
2024/04/12 14:05:34;;;;;;;11.77;6.50;;;28.70;72.40;;;;;;5346085;26;20636;-59
2024/04/12 14:08:09;;;;;;;13.47;7.07;;;28.70;73.10;;;;;;5346231;26;21041;-59
2024/04/12 14:10:36;;;;;;;12.37;6.87;;;28.70;75.10;;;;;;5346611;26;20465;-58
2024/04/12 14:13:05;;;;;;;11.93;6.37;;;28.70;74.00;;;;;;5345931;26;20575;-59
2024/04/12 14:15:34;;;;;;;12.47;6.57;;;28.60;75.10;;;;;;5343902;26;20529;-58
2024/04/12 14:18:02;;;;;;;14.00;7.20;;;28.40;72.00;;;;;;5344213;26;20505;-58
2024/04/12 14:20:30;;;;;;;13.03;7.17;;;28.30;73.90;;;;;;5344976;26;20808;-59
2024/04/12 14:22:58;;;;;;;14.87;7.57;;;28.20;74.10;;;;;;5345452;26;20465;-58
2024/04/12 14:25:27;;;;;;;24.23;7.27;;;28.00;73.20;;;;;;5345999;26;20506;-58
2024/04/12 14:27:58;;;;;;;14.27;6.60;;;28.00;73.80;;;;;;5345897;26;20465;-58
2024/04/12 14:30:25;;;;;;;18.70;7.90;;;27.70;74.80;;;;;;5345681;26;20500;-58
2024/04/12 14:32:53;;;;;;;14.60;6.57;;;27.80;73.60;;;;;;5346001;26;20513;-59